TAF Text Data
IDs:
Format:
Raw Decoded Include METAR

Data at: 1520 UTC 23 Sep 2021

KCAE 231430Z 2314/2412 VRB06KT P6SM SKC
  FM231500 33007KT P6SM SKC
  FM240300 01003KT P6SM SKC